Time;durP1;ratioP1;P1;durP2;ratioP2;P2;SDS_P1;SDS_P2;PMS_P1;PMS_P2;Temp;Humidity;BMP_temperature;BMP_pressure;BME280_temperature;BME280_humidity;BME280_pressure;Samples;Min_cycle;Max_cycle;Signal;HPM_P1;HPM_P2
2022/01/22 00:01:11;;;;;;;6.72;2.35;;;;;;;;;;7710578;23;20048;-77
2022/01/22 00:04:14;;;;;;;8.60;2.47;;;;;;;;;;7711815;23;20023;-75
2022/01/22 00:07:17;;;;;;;21.25;8.38;;;;;;;;;;7685305;23;20095;-75
2022/01/22 00:10:24;;;;;;;3.97;2.08;;;;;;;;;;7722025;23;20090;-76
2022/01/22 00:16:51;;;;;;;9.18;1.98;;;;;;;;;;7722749;23;20016;-76
2022/01/22 00:19:54;;;;;;;5.25;2.50;;;;;;;;;;7685452;23;20017;-76
2022/01/22 00:22:57;;;;;;;6.30;2.00;;;;;;;;;;7709184;23;20447;-76
2022/01/22 00:26:00;;;;;;;6.38;1.90;;;;;;;;;;7684604;23;20052;-75
2022/01/22 00:29:05;;;;;;;4.70;1.80;;;;;;;;;;7722531;23;20016;-76
2022/01/22 00:32:08;;;;;;;4.43;1.70;;;;;;;;;;7709365;23;20025;-75
2022/01/22 00:35:11;;;;;;;8.48;2.20;;;;;;;;;;7683084;23;20020;-75
2022/01/22 00:38:15;;;;;;;4.05;1.80;;;;;;;;;;7683640;23;20020;-76
2022/01/22 00:41:21;;;;;;;3.85;2.13;;;;;;;;;;7722958;23;20513;-76
2022/01/22 00:44:26;;;;;;;4.53;1.77;;;;;;;;;;7682881;23;20017;-76
2022/01/22 00:47:29;;;;;;;6.32;1.98;;;;;;;;;;7709881;23;20455;-76
2022/01/22 00:50:31;;;;;;;5.78;1.77;;;;;;;;;;7683856;23;20513;-75
2022/01/22 00:53:34;;;;;;;4.68;1.80;;;;;;;;;;7683081;23;20021;-76
2022/01/22 00:56:37;;;;;;;5.68;1.83;;;;;;;;;;7683059;23;20027;-76
2022/01/22 00:59:42;;;;;;;3.42;1.35;;;;;;;;;;7710880;23;20020;-75
2022/01/22 01:02:45;;;;;;;5.70;1.83;;;;;;;;;;7712263;23;20024;-75
2022/01/22 01:05:48;;;;;;;3.95;1.77;;;;;;;;;;7685162;23;20347;-75
2022/01/22 01:08:51;;;;;;;4.80;1.60;;;;;;;;;;7710955;23;20095;-76
2022/01/22 01:11:59;;;;;;;9.05;1.80;;;;;;;;;;7686030;23;20024;-76
2022/01/22 01:15:18;;;;;;;4.53;1.83;;;;;;;;;;7697347;23;20092;-76
2022/01/22 01:35:07;;;;;;;6.85;1.60;;;;;;;;;;7681935;23;20070;-76
2022/01/22 01:38:10;;;;;;;5.38;1.48;;;;;;;;;;7682950;23;20021;-76
2022/01/22 01:41:21;;;;;;;5.53;1.40;;;;;;;;;;7682302;23;20020;-76
2022/01/22 01:44:24;;;;;;;2.15;1.30;;;;;;;;;;7696470;23;20028;-76
2022/01/22 01:47:39;;;;;;;4.93;1.58;;;;;;;;;;7697425;23;20028;-76
2022/01/22 01:50:43;;;;;;;6.03;1.40;;;;;;;;;;7698025;23;20017;-75
2022/01/22 01:53:56;;;;;;;4.18;1.10;;;;;;;;;;7696658;23;20462;-76
2022/01/22 02:00:21;;;;;;;2.17;1.00;;;;;;;;;;7697493;23;20024;-76
2022/01/22 02:03:30;;;;;;;2.80;1.20;;;;;;;;;;7697644;23;20021;-76
2022/01/22 02:06:55;;;;;;;5.57;1.40;;;;;;;;;;7709996;23;20108;-76
2022/01/22 02:09:59;;;;;;;3.53;1.30;;;;;;;;;;7697227;23;20023;-76
2022/01/22 02:23:35;;;;;;;3.37;1.10;;;;;;;;;;7696654;23;20016;-76
2022/01/22 02:26:38;;;;;;;4.10;0.98;;;;;;;;;;7689222;23;20250;-76
2022/01/22 02:29:41;;;;;;;2.28;1.35;;;;;;;;;;7685097;23;20023;-76
2022/01/22 02:33:11;;;;;;;2.00;1.27;;;;;;;;;;7696474;23;20074;-76
2022/01/22 02:36:18;;;;;;;3.70;1.40;;;;;;;;;;7696565;23;20036;-76
2022/01/22 02:39:34;;;;;;;2.47;1.00;;;;;;;;;;7684415;23;20027;-76
2022/01/22 02:42:37;;;;;;;4.28;1.00;;;;;;;;;;7723075;23;20017;-76
2022/01/22 02:45:44;;;;;;;4.10;1.07;;;;;;;;;;7694378;23;20024;-76
2022/01/22 02:48:47;;;;;;;3.25;0.85;;;;;;;;;;7684029;23;20259;-77
2022/01/22 02:51:51;;;;;;;2.70;1.33;;;;;;;;;;7684084;23;20020;-77
2022/01/22 02:54:56;;;;;;;4.72;1.15;;;;;;;;;;7682435;23;20074;-76
2022/01/22 02:57:59;;;;;;;1.42;0.93;;;;;;;;;;7682552;23;20047;-77
2022/01/22 03:01:02;;;;;;;4.70;1.30;;;;;;;;;;7684085;23;20395;-77
2022/01/22 03:04:05;;;;;;;2.25;0.90;;;;;;;;;;7684400;23;20020;-76
2022/01/22 03:07:09;;;;;;;2.22;1.30;;;;;;;;;;7683804;23;20024;-76
2022/01/22 03:10:15;;;;;;;3.42;1.23;;;;;;;;;;7684212;23;20118;-76
2022/01/22 03:16:56;;;;;;;2.08;1.05;;;;;;;;;;7723083;23;20342;-75
2022/01/22 03:20:07;;;;;;;1.80;1.00;;;;;;;;;;7683829;23;20017;-76
2022/01/22 03:27:15;;;;;;;2.50;1.20;;;;;;;;;;7696185;23;20044;-76
2022/01/22 03:29:56;;;;;;;2.53;1.10;;;;;;;;;;7684476;23;20023;-76
2022/01/22 03:32:59;;;;;;;8.30;1.63;;;;;;;;;;7683320;23;20020;-76
2022/01/22 03:36:06;;;;;;;3.35;1.20;;;;;;;;;;7683750;23;20542;-77
2022/01/22 03:39:10;;;;;;;3.15;1.02;;;;;;;;;;7696959;23;20332;-77
2022/01/22 03:42:17;;;;;;;1.35;0.90;;;;;;;;;;7695427;23;20095;-77
2022/01/22 03:45:22;;;;;;;2.10;1.02;;;;;;;;;;7683643;23;20024;-77
2022/01/22 03:48:25;;;;;;;4.18;1.30;;;;;;;;;;7683669;23;20016;-77
2022/01/22 03:51:29;;;;;;;2.33;1.27;;;;;;;;;;7683956;23;20071;-77
2022/01/22 03:54:32;;;;;;;2.40;1.15;;;;;;;;;;7683174;23;20020;-77
2022/01/22 03:57:37;;;;;;;3.35;1.33;;;;;;;;;;7683617;23;20044;-77
2022/01/22 04:00:39;;;;;;;5.30;1.48;;;;;;;;;;7708584;23;20017;-76
2022/01/22 04:03:46;;;;;;;3.80;1.90;;;;;;;;;;7681597;23;20455;-76
2022/01/22 04:07:24;;;;;;;2.83;1.52;;;;;;;;;;7694959;23;20021;-76
2022/01/22 04:10:25;;;;;;;3.15;1.52;;;;;;;;;;7694989;23;20021;-76
2022/01/22 04:13:34;;;;;;;2.17;1.50;;;;;;;;;;7695141;23;20020;-76
2022/01/22 04:16:45;;;;;;;3.03;1.80;;;;;;;;;;7718347;23;20023;-76
2022/01/22 04:26:40;;;;;;;2.53;2.08;;;;;;;;;;7685081;23;20055;-75
2022/01/22 04:29:45;;;;;;;9.20;2.22;;;;;;;;;;7718823;23;20031;-75
2022/01/22 04:32:50;;;;;;;5.07;2.13;;;;;;;;;;7695630;23;20328;-75
2022/01/22 04:35:54;;;;;;;4.03;2.42;;;;;;;;;;7712012;23;20020;-76
2022/01/22 04:38:56;;;;;;;3.55;2.30;;;;;;;;;;7712964;23;20016;-76
2022/01/22 04:42:02;;;;;;;4.45;2.30;;;;;;;;;;7697898;23;20028;-76
2022/01/22 04:45:16;;;;;;;4.85;2.60;;;;;;;;;;7698011;23;20071;-75
2022/01/22 04:48:42;;;;;;;5.35;2.47;;;;;;;;;;7699010;23;20042;-75
2022/01/22 04:55:12;;;;;;;4.97;2.35;;;;;;;;;;7695537;23;20039;-75
2022/01/22 04:58:16;;;;;;;6.10;2.70;;;;;;;;;;7685298;23;20092;-77
2022/01/22 05:01:20;;;;;;;5.05;2.60;;;;;;;;;;7685785;23;20436;-77
2022/01/22 05:04:48;;;;;;;4.80;2.65;;;;;;;;;;7712234;23;20023;-77
2022/01/22 05:08:12;;;;;;;5.40;2.70;;;;;;;;;;7711775;23;20021;-77
2022/01/22 05:11:19;;;;;;;5.60;2.70;;;;;;;;;;7697480;23;20016;-76
2022/01/22 05:14:25;;;;;;;6.10;2.83;;;;;;;;;;7698015;23;20055;-77
2022/01/22 05:17:37;;;;;;;3.92;2.45;;;;;;;;;;7684783;23;20447;-76
2022/01/22 05:20:55;;;;;;;5.78;2.40;;;;;;;;;;7697314;23;20017;-76
2022/01/22 05:24:05;;;;;;;3.70;2.50;;;;;;;;;;7697490;23;20024;-76
2022/01/22 05:30:56;;;;;;;5.30;2.67;;;;;;;;;;6262792;27;20881;-75
2022/01/22 05:37:43;;;;;;;3.20;2.35;;;;;;;;;;6261671;28;20052;-75
2022/01/22 05:40:46;;;;;;;3.30;2.00;;;;;;;;;;6260493;28;20129;-75
2022/01/22 05:43:51;;;;;;;4.60;2.10;;;;;;;;;;6261132;28;20171;-75
2022/01/22 05:46:58;;;;;;;3.13;2.30;;;;;;;;;;6259446;28;20076;-76
2022/01/22 05:50:06;;;;;;;3.63;2.20;;;;;;;;;;6258521;28;20041;-76
2022/01/22 05:53:19;;;;;;;3.50;2.08;;;;;;;;;;6257549;28;20502;-75
2022/01/22 05:59:43;;;;;;;3.78;1.92;;;;;;;;;;6259874;27;20099;-75
2022/01/22 06:02:48;;;;;;;;;;;;;;;;;;6260978;28;20068;-76
2022/01/22 06:05:57;;;;;;;2.50;2.00;;;;;;;;;;6260373;28;20009;-76
2022/01/22 06:09:03;;;;;;;2.50;2.05;;;;;;;;;;6261056;28;20048;-79
2022/01/22 06:12:16;;;;;;;2.83;2.15;;;;;;;;;;6261969;28;20088;-76
2022/01/22 06:15:27;;;;;;;3.38;2.30;;;;;;;;;;6260141;28;20041;-75
2022/01/22 06:18:50;;;;;;;2.58;1.92;;;;;;;;;;6260145;28;20388;-75
2022/01/22 06:21:57;;;;;;;2.40;1.92;;;;;;;;;;6260817;28;20513;-75
2022/01/22 06:25:01;;;;;;;2.75;2.17;;;;;;;;;;6260697;28;20118;-75
2022/01/22 06:28:04;;;;;;;3.63;1.73;;;;;;;;;;6259425;28;20060;-75
2022/01/22 06:31:09;;;;;;;2.80;1.95;;;;;;;;;;6258781;28;20072;-75
2022/01/22 06:34:13;;;;;;;2.58;2.13;;;;;;;;;;6259156;28;20046;-75
2022/01/22 06:37:18;;;;;;;3.17;2.10;;;;;;;;;;6258801;28;20068;-75
2022/01/22 06:44:25;;;;;;;3.83;1.83;;;;;;;;;;6242990;28;20095;-75
2022/01/22 06:47:40;;;;;;;2.70;2.15;;;;;;;;;;6242429;28;20090;-74
2022/01/22 06:50:46;;;;;;;3.40;2.40;;;;;;;;;;6242189;28;20099;-74
2022/01/22 06:53:52;;;;;;;4.05;2.20;;;;;;;;;;6241156;28;20042;-74
2022/01/22 06:56:56;;;;;;;2.58;2.10;;;;;;;;;;6243024;28;20077;-74
2022/01/22 07:00:04;;;;;;;2.72;2.20;;;;;;;;;;6243837;28;20041;-74
2022/01/22 07:03:14;;;;;;;2.35;1.90;;;;;;;;;;6241852;28;20384;-75
2022/01/22 07:06:23;;;;;;;3.63;2.00;;;;;;;;;;6233767;28;20037;-74
2022/01/22 07:09:28;;;;;;;2.10;1.90;;;;;;;;;;6236545;28;20072;-74
2022/01/22 07:12:34;;;;;;;2.75;1.83;;;;;;;;;;6240566;28;20069;-74
2022/01/22 07:15:39;;;;;;;3.30;2.08;;;;;;;;;;6236383;28;20072;-74
2022/01/22 07:18:54;;;;;;;2.38;1.80;;;;;;;;;;6240451;28;20423;-73
2022/01/22 07:22:05;;;;;;;4.70;2.22;;;;;;;;;;6225135;28;20079;-74
2022/01/22 07:25:15;;;;;;;3.08;1.98;;;;;;;;;;6241494;28;20068;-76
2022/01/22 07:28:21;;;;;;;3.53;2.17;;;;;;;;;;6223612;28;20073;-75
2022/01/22 07:31:26;;;;;;;2.50;1.88;;;;;;;;;;6239551;28;20064;-76
2022/01/22 07:34:34;;;;;;;3.42;2.13;;;;;;;;;;6238864;28;20080;-76
2022/01/22 07:37:50;;;;;;;2.30;1.67;;;;;;;;;;6219639;28;20054;-78
2022/01/22 07:40:59;;;;;;;1.77;1.65;;;;;;;;;;6213291;28;20058;-76
2022/01/22 07:44:12;;;;;;;3.50;1.90;;;;;;;;;;6214016;28;20049;-76
2022/01/22 07:47:24;;;;;;;3.30;1.98;;;;;;;;;;6216138;28;20078;-75
2022/01/22 07:50:30;;;;;;;3.05;2.25;;;;;;;;;;6214250;28;20156;-75
2022/01/22 07:53:34;;;;;;;2.35;1.90;;;;;;;;;;6213050;28;20122;-77
2022/01/22 07:56:44;;;;;;;3.75;2.28;;;;;;;;;;6216443;28;20445;-76
2022/01/22 07:59:49;;;;;;;3.53;2.10;;;;;;;;;;6216401;28;20468;-75
2022/01/22 08:02:52;;;;;;;2.75;1.85;;;;;;;;;;6214961;28;20042;-74
2022/01/22 08:06:21;;;;;;;2.10;1.90;;;;;;;;;;6215653;28;20069;-75
2022/01/22 08:09:44;;;;;;;3.63;2.55;;;;;;;;;;6215134;28;20042;-75
2022/01/22 08:13:03;;;;;;;2.22;1.85;;;;;;;;;;6213603;28;20042;-74
2022/01/22 08:16:06;;;;;;;4.03;2.15;;;;;;;;;;6212135;28;20049;-73
2022/01/22 08:19:10;;;;;;;2.42;2.00;;;;;;;;;;6214790;28;20122;-77
2022/01/22 08:22:13;;;;;;;2.50;1.90;;;;;;;;;;6213286;28;20034;-76
2022/01/22 08:25:49;;;;;;;5.15;2.30;;;;;;;;;;6248875;28;20106;-75
2022/01/22 08:29:03;;;;;;;5.13;2.60;;;;;;;;;;6225451;28;20058;-76
2022/01/22 08:32:27;;;;;;;4.03;2.25;;;;;;;;;;6240124;28;20045;-75
2022/01/22 08:38:52;;;;;;;3.72;2.33;;;;;;;;;;6240230;28;20129;-76
2022/01/22 08:41:58;;;;;;;4.68;2.88;;;;;;;;;;6238808;28;20056;-75
2022/01/22 08:45:03;;;;;;;;;;;;;;;;;;6240527;28;20133;-76
2022/01/22 08:48:08;;;;;;;5.82;2.70;;;;;;;;;;6239887;28;19928;-76
2022/01/22 08:51:12;;;;;;;6.40;2.60;;;;;;;;;;6239873;28;20065;-76
2022/01/22 08:54:26;;;;;;;3.55;2.25;;;;;;;;;;6238641;28;20227;-75
2022/01/22 08:57:30;;;;;;;6.72;2.38;;;;;;;;;;6239796;28;20439;-76
2022/01/22 09:00:41;;;;;;;5.43;2.38;;;;;;;;;;6239851;28;20117;-76
2022/01/22 09:03:52;;;;;;;5.72;2.70;;;;;;;;;;6238374;28;20485;-76
2022/01/22 09:07:18;;;;;;;5.10;2.90;;;;;;;;;;6258460;28;20049;-76
2022/01/22 09:10:38;;;;;;;5.95;2.60;;;;;;;;;;6222984;28;20053;-76
2022/01/22 09:14:01;;;;;;;4.53;2.85;;;;;;;;;;6240565;28;20049;-76
2022/01/22 09:17:13;;;;;;;4.75;2.47;;;;;;;;;;6238515;28;20069;-77
2022/01/22 09:20:31;;;;;;;4.20;2.30;;;;;;;;;;6238435;28;20069;-76
2022/01/22 09:23:35;;;;;;;3.03;2.17;;;;;;;;;;6239502;28;20084;-76
2022/01/22 09:26:44;;;;;;;3.83;2.10;;;;;;;;;;6240329;28;20099;-76
2022/01/22 09:29:51;;;;;;;3.75;2.30;;;;;;;;;;6238521;28;20426;-76
2022/01/22 09:32:56;;;;;;;3.75;2.20;;;;;;;;;;6240159;28;20054;-75
2022/01/22 09:36:20;;;;;;;3.17;2.10;;;;;;;;;;6240547;28;20490;-76
2022/01/22 09:39:47;;;;;;;4.07;2.50;;;;;;;;;;6242951;28;20065;-76
2022/01/22 09:43:09;;;;;;;21.33;9.50;;;;;;;;;;6239776;28;20502;-75
2022/01/22 09:46:27;;;;;;;4.05;2.15;;;;;;;;;;6238080;28;20463;-75
2022/01/22 09:49:39;;;;;;;5.35;2.60;;;;;;;;;;6239249;28;20060;-76
2022/01/22 09:52:47;;;;;;;3.67;2.65;;;;;;;;;;6240319;28;20411;-76
2022/01/22 09:56:09;;;;;;;3.95;2.20;;;;;;;;;;6239391;28;20083;-75
2022/01/22 09:59:27;;;;;;;4.05;2.50;;;;;;;;;;6237668;28;20497;-76
2022/01/22 10:02:45;;;;;;;5.82;2.70;;;;;;;;;;6238770;28;20515;-81
2022/01/22 10:06:16;;;;;;;4.30;2.40;;;;;;;;;;6238886;28;20044;-77
2022/01/22 10:09:34;;;;;;;5.25;2.55;;;;;;;;;;6238519;28;20072;-79
2022/01/22 10:12:53;;;;;;;4.68;2.42;;;;;;;;;;6237244;28;20053;-78
2022/01/22 10:16:16;;;;;;;3.90;2.63;;;;;;;;;;6241809;28;20060;-78
2022/01/22 10:19:20;;;;;;;5.40;2.78;;;;;;;;;;6210142;28;20053;-78
2022/01/22 10:22:24;;;;;;;4.68;2.60;;;;;;;;;;6242704;28;20042;-82
2022/01/22 10:25:32;;;;;;;2.95;2.15;;;;;;;;;;6241681;28;20052;-77
2022/01/22 10:28:40;;;;;;;4.03;2.22;;;;;;;;;;6242530;28;20321;-80
2022/01/22 10:31:46;;;;;;;5.65;2.90;;;;;;;;;;6240618;28;20453;-80
2022/01/22 10:35:23;;;;;;;5.07;2.97;;;;;;;;;;6241873;28;20200;-79
2022/01/22 10:39:23;;;;;;;3.88;2.38;;;;;;;;;;6241304;27;20046;-81
2022/01/22 10:42:29;;;;;;;7.10;2.60;;;;;;;;;;6240516;28;20477;-80
2022/01/22 10:45:43;;;;;;;4.75;2.35;;;;;;;;;;6240669;28;20049;-79
2022/01/22 10:48:54;;;;;;;5.72;2.47;;;;;;;;;;6240609;28;20427;-78
2022/01/22 10:52:00;;;;;;;3.50;2.08;;;;;;;;;;6239600;28;20443;-76
2022/01/22 10:55:03;;;;;;;7.35;3.30;;;;;;;;;;6241664;28;20069;-78
2022/01/22 10:58:08;;;;;;;6.90;3.45;;;;;;;;;;6241203;28;20057;-78
2022/01/22 11:01:13;;;;;;;5.60;2.97;;;;;;;;;;6240016;28;20045;-78
2022/01/22 11:04:17;;;;;;;5.17;2.90;;;;;;;;;;6240517;28;20139;-77
2022/01/22 11:07:21;;;;;;;4.65;2.70;;;;;;;;;;6240301;28;20073;-77
2022/01/22 11:10:34;;;;;;;4.88;2.20;;;;;;;;;;6240273;28;20392;-78
2022/01/22 11:13:41;;;;;;;5.38;2.35;;;;;;;;;;6240719;28;20450;-75
2022/01/22 11:16:45;;;;;;;2.70;1.92;;;;;;;;;;6240406;28;20376;-75
2022/01/22 11:19:50;;;;;;;5.13;2.60;;;;;;;;;;6239627;28;20451;-76
2022/01/22 11:22:56;;;;;;;2.88;2.00;;;;;;;;;;6241494;28;20050;-76
2022/01/22 11:25:59;;;;;;;2.72;2.17;;;;;;;;;;6240593;28;20049;-76
2022/01/22 11:29:04;;;;;;;4.00;2.20;;;;;;;;;;6240940;28;20054;-77
2022/01/22 11:32:10;;;;;;;2.40;2.08;;;;;;;;;;6239918;28;20072;-76
2022/01/22 11:35:20;;;;;;;3.53;1.50;;;;;;;;;;6238929;28;20045;-77
2022/01/22 11:38:27;;;;;;;4.28;1.85;;;;;;;;;;6240923;28;20124;-75
2022/01/22 11:41:30;;;;;;;3.22;1.77;;;;;;;;;;6221429;28;20041;-75
2022/01/22 11:44:40;;;;;;;2.97;1.92;;;;;;;;;;6239396;28;20057;-75
2022/01/22 11:48:09;;;;;;;4.88;2.22;;;;;;;;;;6235904;28;20053;-75
2022/01/22 11:51:22;;;;;;;2.08;1.50;;;;;;;;;;6238293;28;20095;-75
2022/01/22 11:54:25;;;;;;;3.38;2.03;;;;;;;;;;6235988;28;20121;-76
2022/01/22 11:57:30;;;;;;;4.28;1.88;;;;;;;;;;6235216;28;20049;-75
2022/01/22 12:00:40;;;;;;;3.95;1.67;;;;;;;;;;6236228;28;20056;-75
2022/01/22 12:03:56;;;;;;;3.00;2.05;;;;;;;;;;6237748;28;20057;-75
2022/01/22 12:07:16;;;;;;;2.70;1.63;;;;;;;;;;6214860;28;20052;-77
2022/01/22 12:17:18;;;;;;;3.80;1.88;;;;;;;;;;6215919;28;20084;-76
2022/01/22 12:21:30;;;;;;;4.07;1.67;;;;;;;;;;6211346;28;20046;-75
2022/01/22 12:24:08;;;;;;;3.50;1.70;;;;;;;;;;6211144;28;20072;-77
2022/01/22 12:27:31;;;;;;;4.88;2.00;;;;;;;;;;6212014;28;20073;-76
2022/01/22 12:30:39;;;;;;;4.85;2.08;;;;;;;;;;6211375;28;20081;-75
2022/01/22 12:33:47;;;;;;;3.78;1.95;;;;;;;;;;6213050;28;20424;-76
2022/01/22 12:36:51;;;;;;;3.53;2.10;;;;;;;;;;6213822;28;20049;-77
2022/01/22 12:39:56;;;;;;;5.53;2.33;;;;;;;;;;6212253;28;20053;-76
2022/01/22 12:43:06;;;;;;;2.78;1.90;;;;;;;;;;6213036;28;20078;-76
2022/01/22 12:46:11;;;;;;;2.40;1.83;;;;;;;;;;6213533;28;20053;-77
2022/01/22 12:49:15;;;;;;;91.28;39.35;;;;;;;;;;6228150;28;20518;-76
2022/01/22 12:52:18;;;;;;;5.00;2.30;;;;;;;;;;6239822;28;20124;-77
2022/01/22 12:55:25;;;;;;;3.97;2.28;;;;;;;;;;6227547;28;20088;-77
2022/01/22 12:58:37;;;;;;;4.65;1.73;;;;;;;;;;6215134;28;20468;-77
2022/01/22 13:01:45;;;;;;;5.53;1.98;;;;;;;;;;6214597;28;20571;-77
2022/01/22 13:04:57;;;;;;;6.60;2.13;;;;;;;;;;6215301;28;20054;-77
2022/01/22 13:08:13;;;;;;;2.63;1.50;;;;;;;;;;6224101;28;20049;-76
2022/01/22 13:11:48;;;;;;;4.20;1.98;;;;;;;;;;6251835;27;20081;-77
2022/01/22 13:14:54;;;;;;;2.83;2.00;;;;;;;;;;6233126;28;20053;-75
2022/01/22 13:18:02;;;;;;;2.60;1.95;;;;;;;;;;6213625;28;20050;-77
2022/01/22 13:21:06;;;;;;;3.90;1.60;;;;;;;;;;6213331;28;20076;-77
2022/01/22 13:24:10;;;;;;;4.32;2.00;;;;;;;;;;6213069;28;20098;-76
2022/01/22 13:27:16;;;;;;;3.30;1.98;;;;;;;;;;6214408;28;20050;-77
2022/01/22 13:30:27;;;;;;;3.00;1.60;;;;;;;;;;6214510;28;20141;-77
2022/01/22 13:33:43;;;;;;;2.22;1.60;;;;;;;;;;6212956;28;20074;-79
2022/01/22 13:37:04;;;;;;;;;;;;;;;;;;6213158;28;20065;-77
2022/01/22 13:50:13;;;;;;;3.80;2.08;;;;;;;;;;6222734;28;20042;-76
2022/01/22 13:53:18;;;;;;;4.43;2.10;;;;;;;;;;6225500;28;20068;-76
2022/01/22 13:56:39;;;;;;;2.55;1.77;;;;;;;;;;6212107;28;20049;-77
2022/01/22 13:59:43;;;;;;;3.50;1.60;;;;;;;;;;6228286;28;20061;-76
2022/01/22 14:03:04;;;;;;;2.45;1.60;;;;;;;;;;6225706;28;20113;-77
2022/01/22 14:06:09;;;;;;;3.13;1.90;;;;;;;;;;6228718;28;20080;-77
2022/01/22 14:09:13;;;;;;;5.82;1.80;;;;;;;;;;6229115;28;20042;-78
2022/01/22 14:12:16;;;;;;;4.75;1.60;;;;;;;;;;6228579;28;20404;-79
2022/01/22 14:15:30;;;;;;;3.45;1.92;;;;;;;;;;6237380;28;20057;-77
2022/01/22 14:18:39;;;;;;;3.95;1.92;;;;;;;;;;6240456;28;20079;-77
2022/01/22 14:21:57;;;;;;;3.00;1.73;;;;;;;;;;6240922;28;20045;-77
2022/01/22 14:25:09;;;;;;;4.28;2.50;;;;;;;;;;6240676;28;20049;-77
2022/01/22 14:28:15;;;;;;;3.67;2.05;;;;;;;;;;6224314;28;20128;-80
2022/01/22 14:31:20;;;;;;;4.32;2.10;;;;;;;;;;6241453;28;20503;-75
2022/01/22 14:34:33;;;;;;;3.47;2.28;;;;;;;;;;6241961;28;20122;-78
2022/01/22 14:37:42;;;;;;;3.95;2.17;;;;;;;;;;6224597;28;20502;-77
2022/01/22 14:47:38;;;;;;;6.88;2.45;;;;;;;;;;6241686;28;20053;-77
2022/01/22 14:50:41;;;;;;;4.75;2.20;;;;;;;;;;6240239;28;20092;-77
2022/01/22 14:53:46;;;;;;;4.57;2.20;;;;;;;;;;6240957;28;20046;-76
2022/01/22 14:56:49;;;;;;;5.43;2.28;;;;;;;;;;6241030;28;20106;-77
2022/01/22 14:59:53;;;;;;;4.20;2.35;;;;;;;;;;6238205;28;20056;-75
2022/01/22 15:02:56;;;;;;;3.83;2.15;;;;;;;;;;6239387;28;20061;-79
2022/01/22 15:06:00;;;;;;;4.25;2.17;;;;;;;;;;6241781;28;20480;-79
2022/01/22 15:09:06;;;;;;;4.45;2.25;;;;;;;;;;6241395;28;20092;-77
2022/01/22 15:12:09;;;;;;;5.17;2.20;;;;;;;;;;6239311;28;20098;-76
2022/01/22 15:15:13;;;;;;;5.18;2.30;;;;;;;;;;6241861;28;20287;-78
2022/01/22 15:18:38;;;;;;;7.05;2.40;;;;;;;;;;6240077;28;20357;-77
2022/01/22 15:21:42;;;;;;;7.18;2.70;;;;;;;;;;6236252;28;20395;-78
2022/01/22 15:24:49;;;;;;;7.07;3.63;;;;;;;;;;6227406;28;20559;-75
2022/01/22 15:27:55;;;;;;;5.30;2.55;;;;;;;;;;6216318;28;20049;-75
2022/01/22 15:30:59;;;;;;;5.38;2.60;;;;;;;;;;6236362;28;20057;-77
2022/01/22 15:34:37;;;;;;;5.78;2.55;;;;;;;;;;6240642;28;20041;-76
2022/01/22 15:37:44;;;;;;;5.00;2.13;;;;;;;;;;6239932;28;20384;-77
2022/01/22 15:40:49;;;;;;;4.20;2.20;;;;;;;;;;6241124;28;20049;-76
2022/01/22 15:43:52;;;;;;;3.33;2.13;;;;;;;;;;6239243;28;20503;-77
2022/01/22 15:46:56;;;;;;;5.40;2.72;;;;;;;;;;6238407;28;20073;-75
2022/01/22 15:49:59;;;;;;;3.88;2.28;;;;;;;;;;6239584;28;20041;-74
2022/01/22 15:53:02;;;;;;;4.88;2.60;;;;;;;;;;6223033;28;20135;-79
2022/01/22 15:56:07;;;;;;;5.82;1.98;;;;;;;;;;6240398;28;20479;-77
2022/01/22 15:59:11;;;;;;;3.38;2.08;;;;;;;;;;6238782;28;20052;-76
2022/01/22 16:02:18;;;;;;;5.90;2.22;;;;;;;;;;6235924;28;20065;-77
2022/01/22 16:05:25;;;;;;;4.35;2.40;;;;;;;;;;6239078;28;20049;-76
2022/01/22 16:08:28;;;;;;;6.07;2.30;;;;;;;;;;6238858;28;20048;-76
2022/01/22 16:11:53;;;;;;;6.55;2.65;;;;;;;;;;6239988;28;20084;-75
2022/01/22 16:15:21;;;;;;;5.53;2.10;;;;;;;;;;6240396;28;20396;-76
2022/01/22 16:18:28;;;;;;;5.90;2.47;;;;;;;;;;6238297;28;20502;-74
2022/01/22 16:21:32;;;;;;;4.72;2.33;;;;;;;;;;6239327;28;20379;-74
2022/01/22 16:24:35;;;;;;;7.22;3.08;;;;;;;;;;6240118;28;20057;-74
2022/01/22 16:27:40;;;;;;;6.03;2.47;;;;;;;;;;6238590;28;20053;-75
2022/01/22 16:30:43;;;;;;;6.05;2.38;;;;;;;;;;6238262;28;20498;-76
2022/01/22 16:33:47;;;;;;;4.63;2.50;;;;;;;;;;6221704;28;20041;-76
2022/01/22 16:36:52;;;;;;;7.28;2.78;;;;;;;;;;6240257;28;20052;-76
2022/01/22 16:39:57;;;;;;;7.30;2.10;;;;;;;;;;6239474;28;20099;-76
2022/01/22 16:43:04;;;;;;;4.67;2.07;;;;;;;;;;6237755;28;20064;-75
2022/01/22 16:46:22;;;;;;;5.60;2.45;;;;;;;;;;6238666;28;20117;-75
2022/01/22 16:53:39;;;;;;;5.68;2.10;;;;;;;;;;6238241;28;20053;-75
2022/01/22 16:56:35;;;;;;;4.32;1.77;;;;;;;;;;6239114;28;20092;-78
2022/01/22 16:59:46;;;;;;;4.45;2.00;;;;;;;;;;6239019;27;20443;-75
2022/01/22 17:02:52;;;;;;;3.83;2.05;;;;;;;;;;6238393;28;20042;-77
2022/01/22 17:05:55;;;;;;;4.60;2.35;;;;;;;;;;6237978;28;20065;-75
2022/01/22 17:09:12;;;;;;;4.45;2.30;;;;;;;;;;6237288;28;20050;-76
2022/01/22 17:15:40;;;;;;;5.25;2.30;;;;;;;;;;6236646;28;20073;-76
2022/01/22 17:18:44;;;;;;;4.57;2.08;;;;;;;;;;6237940;28;20033;-77
2022/01/22 17:21:51;;;;;;;6.28;2.42;;;;;;;;;;6237088;28;20056;-76
2022/01/22 17:24:56;;;;;;;6.43;2.42;;;;;;;;;;6239389;28;20498;-76
2022/01/22 17:28:00;;;;;;;9.45;2.40;;;;;;;;;;6238785;28;20073;-76
2022/01/22 17:31:06;;;;;;;5.93;2.63;;;;;;;;;;6237200;28;20060;-76
2022/01/22 17:34:10;;;;;;;4.20;1.70;;;;;;;;;;6221221;28;20058;-77
2022/01/22 17:37:14;;;;;;;3.38;1.73;;;;;;;;;;6237612;28;20053;-75
2022/01/22 17:40:18;;;;;;;6.60;2.03;;;;;;;;;;6221148;28;20498;-76
2022/01/22 17:43:23;;;;;;;4.15;2.00;;;;;;;;;;6221947;28;20054;-75
2022/01/22 17:46:28;;;;;;;4.72;1.70;;;;;;;;;;6213367;28;20050;-77
2022/01/22 17:49:31;;;;;;;3.85;1.80;;;;;;;;;;6214081;28;20069;-77
2022/01/22 17:52:35;;;;;;;3.17;1.90;;;;;;;;;;6212395;28;20046;-77
2022/01/22 17:55:38;;;;;;;4.65;2.00;;;;;;;;;;6212680;28;20123;-79
2022/01/22 17:58:43;;;;;;;3.95;2.20;;;;;;;;;;6213805;28;20107;-79
2022/01/22 18:01:50;;;;;;;3.63;2.00;;;;;;;;;;6213765;28;20132;-77
2022/01/22 18:04:59;;;;;;;4.53;2.13;;;;;;;;;;6211953;28;20056;-77
2022/01/22 18:08:03;;;;;;;4.10;2.08;;;;;;;;;;6214042;28;20157;-77
2022/01/22 18:11:10;;;;;;;4.72;1.80;;;;;;;;;;6180288;28;20053;-78
2022/01/22 18:14:13;;;;;;;4.80;2.45;;;;;;;;;;6212549;28;20492;-77
2022/01/22 18:17:19;;;;;;;3.15;1.73;;;;;;;;;;6213705;28;20056;-75
2022/01/22 18:20:22;;;;;;;5.15;1.52;;;;;;;;;;6211653;28;20064;-76
2022/01/22 18:23:26;;;;;;;3.65;1.92;;;;;;;;;;6212401;28;20091;-77
2022/01/22 18:26:30;;;;;;;3.92;1.83;;;;;;;;;;6194705;28;20042;-77
2022/01/22 18:29:34;;;;;;;5.72;2.25;;;;;;;;;;6211567;28;20081;-77
2022/01/22 18:32:39;;;;;;;4.53;2.20;;;;;;;;;;6194707;28;20156;-77
2022/01/22 18:35:43;;;;;;;5.35;2.40;;;;;;;;;;6211509;28;20494;-77
2022/01/22 18:38:46;;;;;;;5.05;2.38;;;;;;;;;;6215139;28;20049;-76
2022/01/22 18:41:55;;;;;;;6.05;2.83;;;;;;;;;;6199443;28;20056;-77
2022/01/22 18:45:03;;;;;;;4.03;1.95;;;;;;;;;;6217272;28;20042;-77
2022/01/22 18:48:10;;;;;;;7.60;2.60;;;;;;;;;;6214390;28;20049;-78
2022/01/22 18:51:13;;;;;;;3.55;1.88;;;;;;;;;;6213963;28;20052;-77
2022/01/22 18:54:16;;;;;;;4.18;2.63;;;;;;;;;;6213425;28;20142;-77
2022/01/22 18:57:19;;;;;;;4.97;2.25;;;;;;;;;;6213287;28;20058;-76
2022/01/22 19:00:26;;;;;;;6.47;3.10;;;;;;;;;;6216233;28;20053;-77
2022/01/22 19:03:32;;;;;;;6.35;2.20;;;;;;;;;;6200228;28;20128;-77
2022/01/22 19:06:40;;;;;;;4.70;2.15;;;;;;;;;;6215904;28;20042;-76
2022/01/22 19:09:50;;;;;;;7.32;2.33;;;;;;;;;;6216991;28;20140;-78
2022/01/22 19:12:54;;;;;;;4.43;1.98;;;;;;;;;;6220455;28;20042;-77
2022/01/22 19:16:00;;;;;;;4.20;1.90;;;;;;;;;;6216176;28;20073;-78
2022/01/22 19:19:07;;;;;;;4.28;2.22;;;;;;;;;;6215337;28;20046;-76
2022/01/22 19:22:23;;;;;;;6.30;2.67;;;;;;;;;;6216971;28;20428;-75
2022/01/22 19:25:45;;;;;;;5.63;2.15;;;;;;;;;;6215576;28;20426;-76
2022/01/22 19:28:50;;;;;;;7.05;2.28;;;;;;;;;;6215321;28;20058;-76
2022/01/22 19:31:53;;;;;;;5.78;2.17;;;;;;;;;;6214854;28;20069;-76
2022/01/22 19:34:59;;;;;;;2.00;1.70;;;;;;;;;;6215733;28;20387;-77
2022/01/22 19:38:02;;;;;;;4.78;1.77;;;;;;;;;;6216659;28;20061;-77
2022/01/22 19:41:12;;;;;;;4.30;1.75;;;;;;;;;;6216370;28;20396;-77
2022/01/22 19:44:21;;;;;;;5.32;2.65;;;;;;;;;;6215852;28;20066;-76
2022/01/22 19:47:24;;;;;;;3.65;1.77;;;;;;;;;;6216708;28;20057;-76
2022/01/22 19:50:29;;;;;;;4.72;1.90;;;;;;;;;;6215016;28;20050;-77
2022/01/22 19:53:33;;;;;;;4.30;1.80;;;;;;;;;;6198702;28;20042;-76
2022/01/22 19:56:37;;;;;;;4.85;2.30;;;;;;;;;;6216228;28;20546;-75
2022/01/22 19:59:40;;;;;;;3.10;1.98;;;;;;;;;;6216126;28;20531;-74
2022/01/22 20:02:44;;;;;;;3.85;1.77;;;;;;;;;;6214561;28;20434;-74
2022/01/22 20:05:49;;;;;;;3.88;1.63;;;;;;;;;;6214464;28;20492;-76
2022/01/22 20:08:53;;;;;;;1.90;1.02;;;;;;;;;;6215940;28;20064;-76
2022/01/22 20:11:56;;;;;;;2.67;1.20;;;;;;;;;;6216267;28;20401;-76
2022/01/22 20:14:59;;;;;;;3.53;1.90;;;;;;;;;;6215565;28;20046;-75
2022/01/22 20:18:03;;;;;;;7.07;1.98;;;;;;;;;;6214762;28;20038;-75
2022/01/22 20:21:07;;;;;;;5.30;2.15;;;;;;;;;;6214402;28;20054;-76
2022/01/22 20:24:32;;;;;;;7.97;2.47;;;;;;;;;;6215711;28;20050;-75
2022/01/22 20:27:38;;;;;;;4.30;1.77;;;;;;;;;;6215631;28;20035;-77
2022/01/22 20:30:44;;;;;;;2.97;1.50;;;;;;;;;;6215484;28;20054;-74